Pisgah Forest, NC (28768)

03:50 PM EDT del 29 Agosto 2016 (GMT -0400)
Little River | | Change Station

Alt. 2116 ft 35.24 °N, 82.64 °W | Updated 19 seconds ago

Clear
Sereno
81.7 °F
Sembra 85 °F
N
0.0
Vento Variabile Vento da ENE
Gusts 0.0 mph

Oggi
Massima -- | Minima -- °F
--% Possibilità di precip.
Ieri
Massima -- | Minima -- °F
Precip. -- in
Pressione 30.14 in
Visibilità 10.0 miglia
Nuvole Sereno
Indice di calore 85 °F
Punto di rugiada 70 °F
Umidità 68%
Piovosità 0.00 in
Spessore del manto nevoso Non disponibile.
7:01 AM 8:00 PM
Luna calante, 7% visible
METAR KAVL 291854Z 17006KT 10SM CLR 28/17 A3022 RMK AO2 SLP207 T02780167
Pressione 30.14 in
Visibilità 10.0 miglia
Nuvole Sereno
Indice di calore 85 °F
Punto di rugiada 70 °F
Umidità 68%
Piovosità 0.00 in
Spessore del manto nevoso Non disponibile.
7:01 AM 8:00 PM
Luna calante, 7% visible
METAR KAVL 291854Z 17006KT 10SM CLR 28/17 A3022 RMK AO2 SLP207 T02780167
Tropical Depression Nine was centered about 170 miles west-southwest of Key West, Florida, as of late Monday morning. The depression may struggle a bit in the southern Gulf of Mexico before finally making a Gulf Coast landfall later this week with soaking rain and gusty winds.

This latest system was designated a tropical depression Sunday after a Hurricane Hunter reconnaissance mission finally found a sufficiently organized low-pressure center with collocated shower and thunderstorm activity.

10-Day Weather Forecast

Almanac

Astronomia

Aug. 29, 2016 Alba Tramonto
Ora attuale
Crepuscolo civile
Crepuscolo nautico
Crepuscolo astronomico
Luna
Estensione della luce visibile
Lunghezza del giorno
Tomorrow will be .
, % of the Moon is Illuminated

Gli estremi di oggi

State Highs State Lows

Community

WunderPhotos

Upload Photos

1,935,642 foto caricate!

WunderBlog® & News

Nearby

Qualità dell'aria

  Qualità dell'aria Indice AQ Inquinante
Not available.

Profondità neve

Stazione Profondità Altitudine

Attività sismica

Città  Distanza Mag. Data & Ora
Minimo Magnitudo Mostrato è 2.5.

Temperature delle acque costiere

Località Temperatura

Stations

Stazioni meteo nelle vicinanze

Ubicazione della stazione Temp. Raffreddamento del vento Punto di rugiada Umidità Vento Precip. Alt. Aggiornato Tipo
                   

Watches & Warnings

There are currently no watches in effect.